Time;durP1;ratioP1;P1;durP2;ratioP2;P2;SDS_P1;SDS_P2;PMS_P1;PMS_P2;Temp;Humidity;BMP_temperature;BMP_pressure;BME280_temperature;BME280_humidity;BME280_pressure;Samples;Min_cycle;Max_cycle;Signal;HPM_P1;HPM_P2
2022/04/09 00:00:13;;;;;;;13.45;3.25;;;12.30;99.90;;;;;;5052386;28;20102;-76
2022/04/09 00:02:39;;;;;;;14.02;3.72;;;12.40;99.90;;;;;;5053451;28;20051;-76
2022/04/09 00:05:06;;;;;;;11.55;3.42;;;12.30;99.90;;;;;;5053771;28;20080;-76
2022/04/09 00:07:31;;;;;;;9.98;3.80;;;12.10;99.90;;;;;;5034497;28;20046;-76
2022/04/09 00:10:00;;;;;;;14.70;4.43;;;12.20;99.90;;;;;;5033612;28;20032;-76
2022/04/09 00:12:26;;;;;;;12.00;4.40;;;12.20;99.90;;;;;;5034704;28;20038;-75
2022/04/09 00:14:52;;;;;;;14.70;4.97;;;12.20;99.90;;;;;;5033466;28;20040;-75
2022/04/09 00:17:18;;;;;;;8.20;4.00;;;12.20;99.90;;;;;;5034180;28;20040;-76
2022/04/09 00:19:43;;;;;;;9.40;4.45;;;12.10;99.90;;;;;;5034230;28;20033;-76
2022/04/09 00:22:10;;;;;;;11.70;4.82;;;12.00;99.90;;;;;;5047603;28;20059;-76
2022/04/09 00:24:36;;;;;;;11.85;4.60;;;12.00;99.90;;;;;;5041743;28;20037;-77
2022/04/09 00:27:02;;;;;;;11.85;3.10;;;12.00;99.90;;;;;;5032928;28;20485;-75
2022/04/09 00:29:28;;;;;;;11.43;2.78;;;12.10;99.90;;;;;;5034170;28;20040;-75
2022/04/09 00:31:54;;;;;;;9.05;3.10;;;12.40;99.90;;;;;;5037322;28;20025;-75
2022/04/09 00:34:20;;;;;;;7.90;2.58;;;12.30;99.90;;;;;;5044771;28;20076;-75
2022/04/09 00:36:45;;;;;;;13.02;3.53;;;12.20;99.90;;;;;;5034236;28;20391;-75
2022/04/09 00:39:11;;;;;;;7.80;2.83;;;12.40;99.90;;;;;;5032255;28;20450;-76
2022/04/09 00:41:40;;;;;;;12.27;3.45;;;12.30;99.90;;;;;;5034289;28;20025;-76
2022/04/09 00:44:16;;;;;;;10.75;2.83;;;12.20;99.90;;;;;;5046557;28;20060;-75
2022/04/09 00:46:42;;;;;;;6.65;2.47;;;12.20;99.90;;;;;;5035189;28;20034;-76
2022/04/09 00:49:07;;;;;;;13.05;2.63;;;12.00;99.90;;;;;;5052876;28;20086;-75
2022/04/09 00:51:36;;;;;;;10.25;3.10;;;11.90;99.90;;;;;;5051339;28;20376;-76
2022/04/09 00:54:05;;;;;;;10.98;3.85;;;11.80;99.90;;;;;;5032416;28;20141;-75
2022/04/09 00:56:33;;;;;;;14.60;4.22;;;11.90;99.90;;;;;;5032430;28;20138;-76
2022/04/09 00:59:02;;;;;;;12.15;3.92;;;12.00;99.90;;;;;;5032673;28;20438;-75
2022/04/09 01:01:29;;;;;;;17.50;5.65;;;11.90;99.90;;;;;;5043647;28;20440;-75
2022/04/09 01:03:55;;;;;;;12.80;5.00;;;12.00;99.90;;;;;;5050233;28;20156;-75
2022/04/09 01:06:21;;;;;;;11.25;5.28;;;12.00;99.90;;;;;;5052419;28;20064;-76
2022/04/09 01:08:47;;;;;;;16.67;7.03;;;11.90;99.90;;;;;;5049614;28;20076;-75
2022/04/09 01:11:14;;;;;;;14.68;6.85;;;12.00;99.90;;;;;;5032083;28;20018;-75
2022/04/09 01:13:40;;;;;;;13.38;6.88;;;12.00;99.90;;;;;;5033379;28;20059;-76
2022/04/09 01:16:07;;;;;;;17.30;8.10;;;12.00;99.90;;;;;;5051937;28;20060;-76
2022/04/09 01:18:33;;;;;;;18.08;8.30;;;12.00;99.90;;;;;;5034323;28;20033;-76
2022/04/09 01:21:03;;;;;;;14.10;7.68;;;12.00;99.90;;;;;;5031851;28;20022;-76
2022/04/09 01:23:29;;;;;;;14.32;8.05;;;12.00;99.90;;;;;;5047209;28;20033;-76
2022/04/09 01:25:58;;;;;;;17.65;9.23;;;11.90;99.90;;;;;;5032017;28;20042;-76
2022/04/09 01:28:25;;;;;;;13.93;8.45;;;11.90;99.90;;;;;;5044160;28;20036;-76
2022/04/09 01:30:51;;;;;;;14.90;7.25;;;11.80;99.90;;;;;;5047839;28;20029;-76
2022/04/09 01:33:17;;;;;;;20.40;9.60;;;11.90;99.90;;;;;;5030300;28;20387;-76
2022/04/09 01:35:44;;;;;;;15.20;7.78;;;11.90;99.90;;;;;;5031075;28;20036;-76
2022/04/09 01:38:10;;;;;;;20.30;8.50;;;11.90;99.90;;;;;;5031880;28;20025;-76
2022/04/09 01:40:36;;;;;;;17.60;7.78;;;11.90;99.90;;;;;;5032840;28;20033;-76
2022/04/09 01:43:01;;;;;;;13.23;8.52;;;11.90;99.90;;;;;;5031727;28;20029;-76
2022/04/09 01:45:30;;;;;;;16.70;8.32;;;12.00;99.90;;;;;;5048638;28;20037;-76
2022/04/09 01:47:56;;;;;;;16.50;9.05;;;12.00;99.90;;;;;;5051454;28;20085;-76
2022/04/09 01:50:22;;;;;;;15.45;7.55;;;12.10;99.90;;;;;;5049765;28;20055;-75
2022/04/09 01:52:48;;;;;;;19.15;8.50;;;12.00;99.90;;;;;;5051983;28;20025;-76
2022/04/09 01:55:14;;;;;;;16.95;7.65;;;12.00;99.90;;;;;;5035168;28;20124;-75
2022/04/09 01:57:39;;;;;;;14.25;8.52;;;12.10;99.90;;;;;;5031499;28;20105;-76
2022/04/09 02:00:08;;;;;;;15.15;9.32;;;12.10;99.90;;;;;;5045319;28;20053;-76
2022/04/09 02:02:34;;;;;;;21.00;9.07;;;12.10;99.90;;;;;;5051506;28;20429;-76
2022/04/09 02:05:01;;;;;;;20.90;6.88;;;12.20;99.90;;;;;;5038341;28;20068;-75
2022/04/09 02:07:27;;;;;;;14.57;8.00;;;12.30;99.90;;;;;;5031406;28;20419;-76
2022/04/09 02:09:56;;;;;;;16.13;8.38;;;12.30;99.90;;;;;;5042369;28;20040;-76
2022/04/09 02:12:22;;;;;;;16.73;8.02;;;12.30;99.90;;;;;;5051112;28;20060;-75
2022/04/09 02:14:48;;;;;;;16.45;7.97;;;12.30;99.90;;;;;;5039980;28;20120;-76
2022/04/09 02:17:14;;;;;;;14.35;8.18;;;12.30;99.90;;;;;;5031609;28;20111;-75
2022/04/09 02:19:39;;;;;;;16.05;8.95;;;12.10;99.90;;;;;;5039737;28;20025;-75
2022/04/09 02:22:06;;;;;;;17.35;9.95;;;12.10;99.90;;;;;;5051076;28;20553;-76
2022/04/09 02:24:31;;;;;;;16.60;7.45;;;12.10;99.90;;;;;;5049645;28;20032;-76
2022/04/09 02:26:57;;;;;;;16.02;7.15;;;12.20;99.90;;;;;;5051464;28;20559;-75
2022/04/09 02:29:23;;;;;;;14.70;7.65;;;12.10;99.90;;;;;;5049461;28;20048;-75
2022/04/09 02:31:49;;;;;;;16.40;8.35;;;12.10;99.90;;;;;;5048337;28;20479;-76
2022/04/09 02:34:15;;;;;;;16.35;7.45;;;12.00;99.90;;;;;;5037583;28;20025;-76
2022/04/09 02:36:41;;;;;;;13.70;6.60;;;12.00;99.90;;;;;;5050190;28;20040;-76
2022/04/09 02:39:07;;;;;;;17.60;7.60;;;11.90;99.90;;;;;;5031044;28;20545;-75
2022/04/09 02:41:32;;;;;;;12.27;6.70;;;11.80;99.90;;;;;;5031006;28;20029;-75
2022/04/09 02:43:59;;;;;;;16.27;7.90;;;11.80;99.90;;;;;;5045354;28;20038;-75
2022/04/09 02:46:25;;;;;;;15.30;6.45;;;11.80;99.90;;;;;;5046316;28;20028;-76
2022/04/09 02:48:50;;;;;;;17.23;8.63;;;11.90;99.90;;;;;;5053489;28;20510;-75
2022/04/09 02:51:17;;;;;;;14.82;8.25;;;11.80;99.90;;;;;;5041688;28;20025;-76
2022/04/09 02:53:43;;;;;;;12.30;8.15;;;11.90;99.90;;;;;;5036595;28;20116;-75
2022/04/09 02:56:09;;;;;;;15.15;7.72;;;12.00;99.90;;;;;;5054822;28;20075;-75
2022/04/09 02:58:35;;;;;;;16.77;7.80;;;11.90;99.90;;;;;;5054540;28;20029;-76
2022/04/09 03:01:01;;;;;;;15.35;8.20;;;11.90;99.90;;;;;;5034345;28;20373;-74
2022/04/09 03:03:26;;;;;;;13.90;9.23;;;11.80;99.90;;;;;;5039959;28;20038;-74
2022/04/09 03:05:52;;;;;;;14.63;8.48;;;11.90;99.90;;;;;;5048563;28;20499;-74
2022/04/09 03:08:18;;;;;;;16.35;9.38;;;11.90;99.90;;;;;;5037191;28;20041;-77
2022/04/09 03:10:43;;;;;;;17.10;9.32;;;11.90;99.90;;;;;;5049346;28;20040;-75
2022/04/09 03:13:09;;;;;;;15.82;9.20;;;11.90;99.90;;;;;;5050086;28;20039;-73
2022/04/09 03:15:35;;;;;;;16.33;8.63;;;11.90;99.90;;;;;;5047307;28;20075;-74
2022/04/09 03:18:00;;;;;;;15.32;8.77;;;11.80;99.90;;;;;;5036843;28;20029;-74
2022/04/09 03:20:26;;;;;;;17.60;9.57;;;11.80;99.90;;;;;;5043551;28;20036;-74
2022/04/09 03:22:52;;;;;;;19.08;9.90;;;11.70;99.90;;;;;;5030021;28;20036;-74
2022/04/09 03:25:18;;;;;;;18.33;10.93;;;11.80;99.90;;;;;;5036803;28;20032;-74
2022/04/09 03:27:44;;;;;;;16.33;9.98;;;11.80;99.90;;;;;;5050190;28;20091;-74
2022/04/09 03:30:10;;;;;;;20.88;11.48;;;11.70;99.90;;;;;;5032813;28;20098;-73
2022/04/09 03:32:37;;;;;;;17.55;11.23;;;11.80;99.90;;;;;;5030297;28;20040;-73
2022/04/09 03:35:04;;;;;;;19.63;11.40;;;11.90;99.90;;;;;;5043795;28;20040;-74
2022/04/09 03:37:30;;;;;;;22.05;11.82;;;11.80;99.90;;;;;;5048153;28;20048;-74
2022/04/09 03:39:56;;;;;;;19.95;11.65;;;11.80;99.90;;;;;;5034552;28;20056;-74
2022/04/09 03:42:21;;;;;;;17.63;12.00;;;11.80;99.90;;;;;;5029568;28;20060;-74
2022/04/09 03:44:47;;;;;;;24.08;11.68;;;11.70;99.90;;;;;;5032429;28;20037;-73
2022/04/09 03:47:13;;;;;;;18.00;11.73;;;11.80;99.90;;;;;;5029470;28;20091;-74
2022/04/09 03:49:38;;;;;;;20.45;11.80;;;11.80;99.90;;;;;;5041433;28;20391;-74
2022/04/09 03:52:04;;;;;;;18.70;11.25;;;11.70;99.90;;;;;;5049423;28;20025;-74
2022/04/09 03:54:32;;;;;;;19.63;11.95;;;11.70;99.90;;;;;;5039083;28;20045;-74
2022/04/09 03:56:58;;;;;;;20.65;12.13;;;11.70;99.90;;;;;;5029680;28;20041;-74
2022/04/09 03:59:24;;;;;;;14.95;10.40;;;11.70;99.90;;;;;;5033529;28;20067;-74
2022/04/09 04:01:50;;;;;;;21.60;11.13;;;11.70;99.90;;;;;;5046483;28;20056;-74
2022/04/09 04:04:16;;;;;;;23.15;12.88;;;11.70;99.90;;;;;;5038724;28;20042;-74
2022/04/09 04:06:42;;;;;;;19.52;11.30;;;11.80;99.90;;;;;;5026834;28;20079;-74
2022/04/09 04:09:07;;;;;;;20.98;10.90;;;11.80;99.90;;;;;;5032837;28;20066;-74
2022/04/09 04:11:34;;;;;;;21.60;11.27;;;11.70;99.90;;;;;;5042265;28;20029;-73
2022/04/09 04:14:00;;;;;;;20.25;10.52;;;11.70;99.90;;;;;;5035536;28;20570;-73
2022/04/09 04:16:25;;;;;;;19.65;10.32;;;11.70;99.90;;;;;;5030462;28;20058;-74
2022/04/09 04:18:51;;;;;;;15.80;10.20;;;11.60;99.90;;;;;;5046315;28;20056;-73
2022/04/09 04:21:16;;;;;;;18.10;10.68;;;11.60;99.90;;;;;;5042041;28;20470;-74
2022/04/09 04:23:42;;;;;;;17.35;9.65;;;11.60;99.90;;;;;;5045368;28;20033;-73
2022/04/09 04:26:08;;;;;;;19.23;9.75;;;11.60;99.90;;;;;;5037844;28;20026;-74
2022/04/09 04:28:33;;;;;;;16.63;9.38;;;11.60;99.90;;;;;;5025996;28;20120;-74
2022/04/09 04:30:59;;;;;;;16.67;10.25;;;11.70;99.90;;;;;;5031629;28;20063;-74
2022/04/09 04:33:25;;;;;;;19.10;10.95;;;11.60;99.90;;;;;;5045663;28;20075;-74
2022/04/09 04:35:50;;;;;;;18.05;10.43;;;11.70;99.90;;;;;;5040863;28;20476;-73
2022/04/09 04:38:16;;;;;;;24.13;9.90;;;11.60;99.90;;;;;;5025852;28;20029;-73
2022/04/09 04:40:42;;;;;;;15.55;7.45;;;11.60;99.90;;;;;;5028935;28;20471;-74
2022/04/09 04:43:08;;;;;;;11.77;5.97;;;11.60;99.90;;;;;;5045534;28;20032;-73
2022/04/09 04:45:34;;;;;;;16.35;6.43;;;11.50;99.90;;;;;;5043565;28;20025;-74
2022/04/09 04:47:59;;;;;;;17.00;9.20;;;11.50;99.90;;;;;;5040700;28;20033;-75
2022/04/09 04:50:25;;;;;;;18.42;9.70;;;11.40;99.90;;;;;;5044137;28;20116;-75
2022/04/09 04:52:51;;;;;;;19.48;9.65;;;11.20;99.90;;;;;;5025778;28;20031;-75
2022/04/09 04:55:17;;;;;;;15.60;7.35;;;11.20;99.90;;;;;;5044346;28;20078;-75
2022/04/09 04:57:52;;;;;;;12.20;7.32;;;11.20;99.90;;;;;;5045024;28;20075;-75
2022/04/09 05:00:22;;;;;;;20.48;9.35;;;11.20;99.90;;;;;;5028272;28;20108;-75
2022/04/09 05:02:49;;;;;;;19.40;6.75;;;11.20;99.90;;;;;;5045140;28;20040;-75
2022/04/09 05:05:15;;;;;;;18.67;8.18;;;11.20;99.90;;;;;;5043174;28;20162;-75
2022/04/09 05:07:52;;;;;;;13.32;6.53;;;11.20;99.90;;;;;;5045222;28;20514;-75
2022/04/09 05:10:24;;;;;;;14.20;7.78;;;11.30;99.90;;;;;;5039574;28;20044;-75
2022/04/09 05:12:52;;;;;;;13.52;5.50;;;11.30;99.90;;;;;;5025266;28;20029;-75
2022/04/09 05:15:18;;;;;;;12.63;7.03;;;11.30;99.90;;;;;;5041062;28;20036;-75
2022/04/09 05:17:45;;;;;;;16.35;6.68;;;11.30;99.90;;;;;;5043127;28;20028;-75
2022/04/09 05:20:14;;;;;;;13.80;6.13;;;11.40;99.90;;;;;;5041627;28;20033;-75
2022/04/09 05:22:43;;;;;;;10.50;3.55;;;11.40;99.90;;;;;;5025111;28;20037;-76
2022/04/09 05:25:10;;;;;;;13.50;4.85;;;11.40;99.90;;;;;;5024809;28;20028;-76
2022/04/09 05:27:37;;;;;;;9.45;4.13;;;11.50;99.90;;;;;;5044425;28;20036;-76
2022/04/09 05:30:04;;;;;;;12.15;3.88;;;11.50;99.90;;;;;;5044763;28;20533;-76
2022/04/09 05:32:29;;;;;;;9.43;3.20;;;11.50;99.90;;;;;;5025217;28;20033;-76
2022/04/09 05:34:56;;;;;;;11.70;4.35;;;11.60;99.90;;;;;;5025022;28;20035;-76
2022/04/09 05:37:22;;;;;;;9.32;3.10;;;11.80;99.90;;;;;;5025609;28;20514;-75
2022/04/09 05:39:47;;;;;;;7.10;3.55;;;11.80;99.90;;;;;;5024767;28;20033;-76
2022/04/09 05:42:14;;;;;;;10.73;3.42;;;11.90;99.90;;;;;;5041938;28;20029;-76
2022/04/09 05:44:39;;;;;;;8.10;3.58;;;11.90;99.90;;;;;;5042564;28;20033;-76
2022/04/09 05:47:05;;;;;;;6.05;3.20;;;11.90;99.90;;;;;;5043135;28;20553;-76
2022/04/09 05:49:31;;;;;;;9.63;3.95;;;12.00;99.90;;;;;;5032949;28;20041;-76
2022/04/09 05:51:57;;;;;;;7.97;3.08;;;12.00;99.90;;;;;;5039073;28;20033;-77
2022/04/09 05:54:24;;;;;;;11.25;3.90;;;11.90;99.90;;;;;;5042729;28;20033;-75
2022/04/09 05:56:50;;;;;;;10.55;3.15;;;11.90;99.90;;;;;;5043859;28;20672;-76
2022/04/09 05:59:16;;;;;;;7.10;2.83;;;12.00;99.90;;;;;;5038128;28;20379;-76
2022/04/09 06:01:42;;;;;;;8.25;3.65;;;12.00;99.90;;;;;;5039308;28;20029;-76
2022/04/09 06:04:08;;;;;;;7.07;4.15;;;12.00;99.90;;;;;;5044553;28;20053;-76
2022/04/09 06:06:33;;;;;;;10.02;3.65;;;12.10;99.90;;;;;;5045396;28;20035;-76
2022/04/09 06:08:59;;;;;;;8.82;3.03;;;12.10;99.90;;;;;;5033040;28;20525;-76
2022/04/09 06:11:25;;;;;;;8.95;3.28;;;12.10;99.90;;;;;;5046953;28;20112;-76
2022/04/09 06:13:50;;;;;;;10.70;3.60;;;12.20;99.90;;;;;;5046939;28;20081;-77
2022/04/09 06:16:16;;;;;;;7.03;2.83;;;12.20;99.90;;;;;;5047237;28;20046;-76
2022/04/09 06:18:42;;;;;;;9.73;3.15;;;12.20;99.90;;;;;;5047408;28;20100;-76
2022/04/09 06:21:09;;;;;;;7.70;3.20;;;12.20;99.90;;;;;;5047036;28;20107;-76
2022/04/09 06:23:35;;;;;;;10.07;3.10;;;12.30;99.90;;;;;;5046248;28;20559;-76
2022/04/09 06:26:01;;;;;;;8.35;3.00;;;12.30;99.90;;;;;;5046784;28;20701;-76
2022/04/09 06:28:27;;;;;;;12.25;3.22;;;12.30;99.90;;;;;;5046045;28;20040;-76
2022/04/09 06:30:53;;;;;;;9.52;4.07;;;12.20;99.90;;;;;;5045513;28;20033;-76
2022/04/09 06:33:19;;;;;;;6.93;2.53;;;12.10;99.90;;;;;;5046881;28;20025;-76
2022/04/09 06:35:46;;;;;;;7.75;2.70;;;12.10;99.90;;;;;;5033461;28;20033;-76
2022/04/09 06:38:12;;;;;;;9.77;3.10;;;12.20;99.90;;;;;;5036255;28;20063;-75
2022/04/09 06:40:37;;;;;;;9.00;2.50;;;12.30;99.90;;;;;;5037383;28;20084;-75
2022/04/09 06:43:03;;;;;;;8.57;3.10;;;12.40;99.90;;;;;;5043151;28;20021;-74
2022/04/09 06:45:28;;;;;;;8.95;2.58;;;12.40;99.90;;;;;;5047027;28;20044;-74
2022/04/09 06:47:54;;;;;;;10.45;3.05;;;12.60;99.90;;;;;;5046789;28;20055;-75
2022/04/09 06:50:20;;;;;;;9.43;2.97;;;13.20;99.90;;;;;;5046850;28;20498;-75
2022/04/09 06:52:46;;;;;;;9.15;3.15;;;14.00;99.90;;;;;;5047037;28;20422;-75
2022/04/09 06:55:12;;;;;;;4.80;2.70;;;14.80;99.90;;;;;;5047138;28;20044;-75
2022/04/09 06:57:39;;;;;;;6.72;2.35;;;15.50;99.90;;;;;;5046503;28;20025;-75
2022/04/09 07:00:08;;;;;;;8.98;2.40;;;16.50;98.20;;;;;;5046730;28;20091;-75
2022/04/09 07:02:34;;;;;;;7.78;2.47;;;16.80;97.60;;;;;;5046458;28;20029;-75
2022/04/09 07:05:00;;;;;;;8.85;2.72;;;14.80;99.80;;;;;;5046321;28;20048;-75
2022/04/09 07:07:27;;;;;;;10.63;2.42;;;14.60;99.90;;;;;;5046342;28;20036;-75
2022/04/09 07:10:07;;;;;;;13.05;2.75;;;17.10;97.90;;;;;;5046452;28;20104;-75
2022/04/09 07:12:36;;;;;;;9.25;3.42;;;18.40;95.10;;;;;;5046741;28;20029;-75
2022/04/09 07:15:02;;;;;;;6.93;2.35;;;19.40;93.60;;;;;;5045147;28;20063;-75
2022/04/09 07:17:29;;;;;;;6.15;2.33;;;19.40;94.10;;;;;;5043920;28;20029;-75
2022/04/09 07:20:03;;;;;;;6.45;2.20;;;16.70;95.50;;;;;;5046461;28;20021;-75
2022/04/09 07:22:29;;;;;;;8.10;2.85;;;15.00;98.50;;;;;;5039300;28;20040;-75
2022/04/09 07:24:55;;;;;;;8.02;2.78;;;13.90;99.90;;;;;;5042112;28;20116;-75
2022/04/09 07:27:21;;;;;;;6.93;2.97;;;13.50;99.90;;;;;;5041041;28;20499;-74
2022/04/09 07:29:47;;;;;;;7.10;2.97;;;13.30;99.90;;;;;;5029306;28;20051;-75
2022/04/09 07:32:13;;;;;;;6.82;2.97;;;13.30;99.90;;;;;;5024587;28;20601;-74
2022/04/09 07:34:38;;;;;;;7.40;2.80;;;13.20;99.90;;;;;;5041122;28;20029;-73
2022/04/09 07:37:05;;;;;;;12.20;3.58;;;13.20;99.90;;;;;;5047005;28;20510;-74
2022/04/09 07:39:30;;;;;;;6.75;2.90;;;13.40;99.90;;;;;;5027893;28;20099;-75
2022/04/09 07:41:56;;;;;;;8.13;2.80;;;13.40;99.90;;;;;;5046291;28;20486;-74
2022/04/09 07:44:23;;;;;;;8.52;2.65;;;13.30;99.90;;;;;;5046009;28;20067;-74
2022/04/09 07:46:50;;;;;;;6.70;2.25;;;13.30;99.90;;;;;;5046567;28;20036;-74
2022/04/09 07:49:15;;;;;;;6.93;2.17;;;13.30;99.90;;;;;;5046341;28;20075;-74
2022/04/09 07:51:41;;;;;;;5.53;2.47;;;13.30;99.90;;;;;;5045540;28;20061;-74
2022/04/09 07:54:08;;;;;;;3.92;1.90;;;13.20;99.90;;;;;;5045808;28;20025;-74
2022/04/09 07:56:33;;;;;;;8.35;2.90;;;13.10;99.90;;;;;;5045726;28;20100;-74
2022/04/09 07:58:59;;;;;;;5.25;2.28;;;13.20;99.90;;;;;;5045322;28;20021;-74
2022/04/09 08:01:25;;;;;;;7.63;2.67;;;13.50;99.90;;;;;;5045360;28;20025;-75
2022/04/09 08:03:50;;;;;;;6.13;2.38;;;13.40;99.90;;;;;;5045840;28;20037;-74
2022/04/09 08:06:16;;;;;;;7.38;2.80;;;13.40;99.90;;;;;;5040179;28;20072;-74
2022/04/09 08:08:42;;;;;;;6.50;2.28;;;13.50;99.90;;;;;;5031603;28;20398;-74
2022/04/09 08:11:09;;;;;;;3.53;1.38;;;13.40;99.90;;;;;;5045516;28;20029;-75
2022/04/09 08:13:35;;;;;;;1.75;0.60;;;13.40;99.90;;;;;;5045455;28;20032;-74
2022/04/09 08:16:01;;;;;;;2.55;0.50;;;13.50;96.40;;;;;;5046219;28;20035;-74
2022/04/09 08:18:27;;;;;;;0.90;0.40;;;13.60;96.90;;;;;;5040743;28;20033;-74
2022/04/09 08:20:52;;;;;;;1.30;0.50;;;13.60;95.60;;;;;;5032016;28;20104;-74
2022/04/09 08:23:18;;;;;;;0.55;0.20;;;13.60;95.00;;;;;;5045523;28;20328;-74
2022/04/09 08:25:44;;;;;;;1.08;0.32;;;13.60;93.90;;;;;;5045287;28;20361;-74
2022/04/09 08:28:10;;;;;;;1.55;0.20;;;13.60;94.40;;;;;;5040412;28;20371;-74
2022/04/09 08:30:36;;;;;;;0.43;0.10;;;13.60;92.20;;;;;;5044901;28;20032;-74
2022/04/09 08:33:05;;;;;;;1.45;0.28;;;13.70;92.50;;;;;;5044770;28;20051;-75
2022/04/09 08:35:31;;;;;;;2.35;0.20;;;13.80;92.10;;;;;;5030963;28;20030;-74
2022/04/09 08:37:57;;;;;;;0.00;0.00;;;13.70;93.10;;;;;;5040616;28;20064;-74
2022/04/09 08:40:25;;;;;;;0.82;0.20;;;13.80;91.00;;;;;;5038391;28;20064;-74
2022/04/09 08:42:50;;;;;;;0.75;0.13;;;13.90;92.10;;;;;;5032463;28;20034;-74
2022/04/09 08:45:17;;;;;;;1.00;0.28;;;14.00;90.50;;;;;;5040350;28;20498;-74
2022/04/09 08:47:43;;;;;;;2.25;0.30;;;14.20;88.10;;;;;;5042784;28;20041;-74
2022/04/09 08:50:14;;;;;;;0.20;0.10;;;14.30;87.80;;;;;;5026971;28;20451;-74
2022/04/09 08:52:41;;;;;;;0.45;0.10;;;14.40;87.20;;;;;;5038037;28;20026;-74
2022/04/09 08:55:09;;;;;;;0.98;0.20;;;14.40;86.20;;;;;;5032776;28;20247;-74
2022/04/09 08:57:35;;;;;;;0.57;0.20;;;14.50;87.30;;;;;;5044417;28;20051;-74
2022/04/09 09:00:06;;;;;;;0.85;0.20;;;15.00;85.60;;;;;;5035097;28;20033;-74
2022/04/09 09:02:35;;;;;;;0.52;0.10;;;15.00;83.40;;;;;;5037265;28;20033;-74
2022/04/09 09:05:01;;;;;;;0.22;0.10;;;16.20;81.00;;;;;;5042266;28;20056;-74
2022/04/09 09:07:28;;;;;;;0.88;0.20;;;15.30;79.90;;;;;;5033178;28;20049;-73
2022/04/09 09:10:13;;;;;;;1.10;0.20;;;15.00;79.80;;;;;;5033996;28;20562;-75
2022/04/09 09:12:40;;;;;;;0.47;0.20;;;14.80;81.10;;;;;;5031137;28;20463;-74
2022/04/09 09:15:06;;;;;;;2.72;0.25;;;14.90;79.20;;;;;;5043699;28;20036;-74
2022/04/09 09:17:32;;;;;;;0.93;0.22;;;14.80;77.30;;;;;;5047390;28;20056;-74
2022/04/09 09:19:58;;;;;;;0.10;0.05;;;14.70;78.10;;;;;;5047981;28;20427;-75
2022/04/09 09:22:42;;;;;;;3.10;0.10;;;14.80;78.50;;;;;;5047764;28;20086;-75
2022/04/09 09:25:12;;;;;;;0.30;0.15;;;14.60;77.60;;;;;;5047610;28;20037;-75
2022/04/09 09:27:40;;;;;;;0.75;0.10;;;14.50;75.50;;;;;;5047643;28;20037;-75
2022/04/09 09:30:08;;;;;;;2.83;0.20;;;14.40;77.90;;;;;;5047751;28;20021;-75
2022/04/09 09:32:34;;;;;;;3.50;0.10;;;14.30;77.00;;;;;;5047998;28;20033;-75
2022/04/09 09:35:01;;;;;;;0.73;0.00;;;14.20;75.80;;;;;;5047896;28;20029;-75
2022/04/09 09:37:29;;;;;;;0.50;0.03;;;14.10;76.50;;;;;;5046047;28;20351;-74
2022/04/09 09:39:55;;;;;;;0.85;0.43;;;14.10;75.60;;;;;;5047631;28;20035;-75
2022/04/09 09:42:22;;;;;;;0.20;0.10;;;14.00;75.70;;;;;;5047166;28;20076;-75
2022/04/09 09:44:49;;;;;;;0.00;0.00;;;13.90;75.50;;;;;;5046401;28;20032;-75
2022/04/09 09:47:15;;;;;;;0.20;0.10;;;13.90;73.40;;;;;;5047503;28;20113;-74
2022/04/09 09:49:56;;;;;;;0.88;0.20;;;13.90;75.40;;;;;;5047184;28;20033;-75
2022/04/09 09:52:26;;;;;;;0.20;0.10;;;13.70;74.00;;;;;;5047551;28;20044;-75
2022/04/09 09:54:58;;;;;;;0.65;0.15;;;13.70;74.30;;;;;;5047363;28;20071;-75
2022/04/09 09:57:26;;;;;;;0.13;0.10;;;13.70;74.20;;;;;;5046588;28;20422;-74
2022/04/09 09:59:57;;;;;;;0.47;0.10;;;13.60;75.60;;;;;;5047375;28;20031;-75
2022/04/09 10:02:24;;;;;;;0.75;0.20;;;13.60;75.80;;;;;;5046858;28;20025;-75
2022/04/09 10:04:51;;;;;;;0.43;0.10;;;13.50;73.70;;;;;;5046741;28;20041;-75
2022/04/09 10:07:18;;;;;;;0.82;0.10;;;13.50;71.90;;;;;;5047260;28;20029;-75
2022/04/09 10:09:45;;;;;;;1.95;0.30;;;13.50;71.80;;;;;;5047087;28;20041;-75
2022/04/09 10:12:18;;;;;;;1.83;0.13;;;13.50;70.90;;;;;;5047022;28;20025;-74
2022/04/09 10:14:52;;;;;;;2.47;0.20;;;13.50;69.90;;;;;;5047514;28;20024;-75
2022/04/09 10:17:20;;;;;;;0.25;0.10;;;13.40;70.20;;;;;;5047071;28;20032;-75
2022/04/09 10:19:53;;;;;;;0.52;0.20;;;13.40;69.50;;;;;;5047265;28;20017;-75
2022/04/09 10:22:21;;;;;;;0.95;0.10;;;13.40;68.80;;;;;;5046907;28;20029;-75
2022/04/09 10:24:47;;;;;;;12.63;0.40;;;13.30;68.70;;;;;;5046692;28;20163;-75
2022/04/09 10:27:43;;;;;;;1.25;0.20;;;13.30;69.00;;;;;;5045977;28;20054;-74
2022/04/09 10:30:14;;;;;;;1.00;0.10;;;13.30;68.90;;;;;;5045693;28;20486;-74
2022/04/09 10:32:48;;;;;;;1.55;0.10;;;13.30;69.70;;;;;;5046705;28;20111;-75
2022/04/09 10:35:44;;;;;;;0.60;0.10;;;13.30;67.70;;;;;;5046911;28;20032;-75
2022/04/09 10:38:10;;;;;;;1.80;0.20;;;13.10;70.90;;;;;;5046812;28;20672;-75
2022/04/09 10:40:55;;;;;;;1.00;0.10;;;12.80;70.60;;;;;;5045544;28;20051;-74
2022/04/09 10:43:24;;;;;;;0.20;0.00;;;12.70;74.20;;;;;;5047268;28;20458;-74
2022/04/09 10:46:02;;;;;;;0.30;0.08;;;12.70;70.00;;;;;;5046657;28;20017;-74
2022/04/09 10:48:32;;;;;;;0.43;0.10;;;12.60;71.60;;;;;;5046045;28;20040;-75
2022/04/09 10:50:59;;;;;;;0.77;0.20;;;12.30;73.10;;;;;;5046178;28;20044;-74
2022/04/09 10:53:30;;;;;;;3.10;1.50;;;12.20;73.90;;;;;;5046830;28;20029;-74
2022/04/09 10:56:24;;;;;;;0.00;0.00;;;11.80;75.10;;;;;;5046748;28;20624;-74
2022/04/09 10:59:13;;;;;;;0.25;0.00;;;11.80;75.40;;;;;;5046663;28;20021;-75
2022/04/09 11:01:47;;;;;;;0.10;0.10;;;11.50;77.50;;;;;;5046443;28;20013;-74
2022/04/09 11:07:17;;;;;;;0.85;0.13;;;11.20;82.80;;;;;;5046378;28;20030;-74
2022/04/09 11:10:00;;;;;;;3.10;0.50;;;10.90;81.70;;;;;;5050057;28;20053;-74
2022/04/09 11:12:29;;;;;;;0.95;0.20;;;10.90;83.00;;;;;;5050573;28;20081;-74
2022/04/09 11:15:01;;;;;;;0.15;0.00;;;10.90;82.80;;;;;;5050347;28;20449;-74
2022/04/09 11:17:35;;;;;;;0.08;0.00;;;11.00;78.80;;;;;;5050597;28;20036;-74
2022/04/09 11:20:04;;;;;;;0.28;0.13;;;11.10;81.20;;;;;;5050167;28;20132;-75
2022/04/09 11:22:35;;;;;;;0.10;0.10;;;11.10;81.20;;;;;;5050195;28;20037;-75
2022/04/09 11:25:02;;;;;;;1.38;0.13;;;11.10;78.90;;;;;;5050012;28;20382;-74
2022/04/09 11:27:29;;;;;;;2.05;0.20;;;11.20;80.10;;;;;;5049769;28;20036;-74
2022/04/09 11:29:55;;;;;;;0.17;0.10;;;11.10;80.40;;;;;;5049764;28;20512;-74
2022/04/09 11:32:22;;;;;;;3.08;0.22;;;11.10;78.30;;;;;;5050625;28;20029;-74
2022/04/09 11:34:56;;;;;;;0.73;0.20;;;11.10;80.20;;;;;;5049839;28;20067;-75
2022/04/09 11:37:29;;;;;;;1.48;0.20;;;11.10;77.70;;;;;;5050265;28;20055;-74
2022/04/09 11:39:57;;;;;;;0.82;0.35;;;11.30;78.10;;;;;;5049837;28;20471;-74
2022/04/09 11:42:23;;;;;;;0.28;0.10;;;11.30;77.20;;;;;;5048374;28;20028;-74
2022/04/09 11:44:49;;;;;;;0.70;0.10;;;11.30;76.60;;;;;;5049702;28;20025;-75
2022/04/09 11:47:16;;;;;;;1.45;0.10;;;11.50;76.70;;;;;;5049924;28;20025;-74
2022/04/09 11:49:47;;;;;;;0.70;0.25;;;11.40;75.50;;;;;;5049703;28;20102;-75
2022/04/09 11:52:12;;;;;;;0.50;0.10;;;11.50;74.00;;;;;;5049971;28;20044;-74
2022/04/09 11:54:39;;;;;;;1.00;0.20;;;11.50;74.50;;;;;;5050066;28;20082;-74
2022/04/09 11:57:11;;;;;;;3.20;0.22;;;11.50;75.60;;;;;;5050134;28;20033;-75
2022/04/09 11:59:37;;;;;;;1.08;0.10;;;11.60;74.70;;;;;;5049382;28;20486;-74
2022/04/09 12:02:03;;;;;;;0.75;0.20;;;11.60;71.00;;;;;;5049528;28;20571;-74
2022/04/09 12:04:36;;;;;;;0.73;0.20;;;11.70;72.90;;;;;;5049340;28;20049;-74
2022/04/09 12:07:04;;;;;;;0.40;0.20;;;11.70;72.50;;;;;;5047991;28;20383;-74
2022/04/09 12:09:30;;;;;;;0.15;0.10;;;11.70;70.70;;;;;;5049186;28;20029;-74
2022/04/09 12:12:00;;;;;;;0.55;0.17;;;11.70;70.60;;;;;;5049317;28;20091;-75
2022/04/09 12:14:27;;;;;;;0.40;0.30;;;11.70;71.00;;;;;;5048982;28;20052;-74
2022/04/09 12:16:53;;;;;;;0.22;0.20;;;11.60;70.20;;;;;;5049346;28;20502;-75
2022/04/09 12:19:31;;;;;;;3.20;0.30;;;11.60;70.40;;;;;;5048605;28;20017;-74
2022/04/09 12:22:19;;;;;;;0.25;0.10;;;11.50;70.10;;;;;;5049191;28;20028;-74
2022/04/09 12:24:50;;;;;;;0.63;0.30;;;11.50;69.20;;;;;;5048990;28;20025;-74
2022/04/09 12:27:16;;;;;;;1.00;0.47;;;11.60;71.20;;;;;;5049424;28;20035;-74
2022/04/09 12:29:53;;;;;;;2.72;0.25;;;11.60;71.70;;;;;;5048939;28;20037;-74
2022/04/09 12:32:23;;;;;;;0.88;0.30;;;11.60;69.80;;;;;;5048993;28;20504;-74
2022/04/09 12:34:58;;;;;;;0.47;0.20;;;11.50;69.80;;;;;;5049048;28;20150;-74
2022/04/09 12:37:25;;;;;;;1.35;0.40;;;11.60;70.40;;;;;;5048416;28;20049;-74
2022/04/09 12:39:52;;;;;;;0.35;0.13;;;11.60;72.20;;;;;;5048376;28;20033;-74
2022/04/09 12:42:33;;;;;;;0.65;0.20;;;11.40;69.40;;;;;;5048554;28;20100;-74
2022/04/09 12:45:20;;;;;;;0.47;0.20;;;11.50;70.60;;;;;;5048340;28;20029;-74